Time;durP1;ratioP1;P1;durP2;ratioP2;P2;SDS_P1;SDS_P2;PMS_P1;PMS_P2;Temp;Humidity;BMP_temperature;BMP_pressure;BME280_temperature;BME280_humidity;BME280_pressure;Samples;Min_cycle;Max_cycle;Signal;HPM_P1;HPM_P2
2021/05/02 00:01:43;;;;;;;14.00;10.97;;;12.00;49.60;;;;;;5005043;28;20457;-45
2021/05/02 00:04:10;;;;;;;9.33;8.43;;;12.00;48.70;;;;;;5006990;28;20476;-45
2021/05/02 00:06:36;;;;;;;10.53;9.17;;;12.00;48.50;;;;;;5005302;28;20452;-45
2021/05/02 00:09:03;;;;;;;10.90;8.63;;;12.00;48.70;;;;;;5001929;28;20448;-45
2021/05/02 00:11:29;;;;;;;9.27;8.40;;;12.00;48.90;;;;;;5000297;28;20492;-45
2021/05/02 00:13:56;;;;;;;9.43;8.60;;;12.00;49.00;;;;;;5006979;28;20548;-45
2021/05/02 00:16:22;;;;;;;9.80;8.20;;;12.00;48.50;;;;;;5002637;28;20483;-45
2021/05/02 00:18:49;;;;;;;9.43;8.50;;;11.90;48.50;;;;;;5002084;28;20565;-45
2021/05/02 00:21:15;;;;;;;9.10;8.20;;;11.90;48.80;;;;;;5001979;28;20464;-45
2021/05/02 00:23:42;;;;;;;10.20;9.17;;;11.90;48.40;;;;;;5009630;28;21084;-45
2021/05/02 00:26:10;;;;;;;9.47;8.57;;;11.90;49.10;;;;;;5009256;28;20474;-45
2021/05/02 00:28:43;;;;;;;8.43;7.63;;;11.90;49.30;;;;;;5004788;28;20460;-45
2021/05/02 00:31:10;;;;;;;10.00;8.27;;;11.90;49.30;;;;;;5009399;28;20456;-45
2021/05/02 00:33:36;;;;;;;9.93;8.50;;;11.90;49.20;;;;;;5018271;28;20819;-45
2021/05/02 00:36:04;;;;;;;10.13;8.47;;;11.90;50.00;;;;;;5007417;28;20987;-45
2021/05/02 00:38:33;;;;;;;8.90;8.00;;;11.80;49.60;;;;;;5022090;28;20970;-45
2021/05/02 00:41:04;;;;;;;9.17;8.37;;;11.80;50.30;;;;;;5009846;28;20460;-45
2021/05/02 00:43:43;;;;;;;10.87;9.67;;;11.80;49.80;;;;;;5004144;28;20489;-45
2021/05/02 00:46:24;;;;;;;9.90;9.00;;;11.80;49.30;;;;;;5014320;28;20538;-45
2021/05/02 00:49:13;;;;;;;12.33;10.07;;;11.80;49.70;;;;;;5010465;28;20464;-45
2021/05/02 00:51:42;;;;;;;9.97;8.77;;;11.80;49.30;;;;;;5017781;28;20836;-45
2021/05/02 00:54:15;;;;;;;10.30;9.30;;;11.70;49.30;;;;;;5013641;28;20986;-45
2021/05/02 00:56:58;;;;;;;11.87;9.50;;;11.70;49.10;;;;;;5018700;28;20507;-45
2021/05/02 00:59:52;;;;;;;10.23;9.13;;;11.70;49.30;;;;;;5008324;28;20463;-45
2021/05/02 01:02:21;;;;;;;12.00;10.03;;;11.70;48.90;;;;;;5014485;28;20467;-45
2021/05/02 01:04:52;;;;;;;10.60;9.50;;;11.70;48.90;;;;;;5016890;28;20503;-45
2021/05/02 01:07:22;;;;;;;10.57;9.67;;;11.70;49.50;;;;;;5012965;28;20471;-45
2021/05/02 01:09:49;;;;;;;10.27;8.93;;;11.60;49.50;;;;;;5013133;28;20939;-45
2021/05/02 01:12:19;;;;;;;10.00;8.93;;;11.60;49.30;;;;;;5016845;28;20541;-45
2021/05/02 01:14:53;;;;;;;12.60;8.57;;;11.60;49.40;;;;;;5019156;28;20466;-45
2021/05/02 01:17:22;;;;;;;10.97;9.83;;;11.60;49.80;;;;;;5010998;28;20995;-45
2021/05/02 01:19:49;;;;;;;11.17;9.57;;;11.60;49.80;;;;;;5013528;28;20460;-45
2021/05/02 01:22:18;;;;;;;11.10;9.97;;;11.60;50.40;;;;;;5015150;28;20551;-45
2021/05/02 01:24:49;;;;;;;10.47;8.90;;;11.60;50.10;;;;;;5018183;28;20484;-45
2021/05/02 01:27:34;;;;;;;10.80;9.70;;;11.60;50.40;;;;;;5009344;28;20475;-45
2021/05/02 01:30:09;;;;;;;10.53;9.30;;;11.60;50.20;;;;;;5013970;28;20456;-45
2021/05/02 01:32:36;;;;;;;10.23;9.33;;;11.60;50.20;;;;;;5007103;28;20458;-45
2021/05/02 01:35:05;;;;;;;9.83;8.83;;;11.50;50.20;;;;;;5011412;28;20518;-45
2021/05/02 01:37:32;;;;;;;12.10;10.33;;;11.50;50.40;;;;;;5011136;28;20941;-45
2021/05/02 01:39:59;;;;;;;11.63;9.20;;;11.50;50.80;;;;;;5013008;28;20458;-45
2021/05/02 01:42:25;;;;;;;9.47;8.53;;;11.50;50.60;;;;;;5010408;28;20490;-45
2021/05/02 01:44:54;;;;;;;11.83;10.53;;;11.50;51.10;;;;;;5013580;28;20471;-45
2021/05/02 01:47:21;;;;;;;14.23;9.60;;;11.50;51.20;;;;;;5019021;28;20452;-45
2021/05/02 01:49:49;;;;;;;11.60;9.60;;;11.50;51.50;;;;;;5011209;28;20460;-45
2021/05/02 01:52:18;;;;;;;9.90;8.60;;;11.40;51.50;;;;;;5012792;28;20539;-45
2021/05/02 01:54:45;;;;;;;12.40;9.53;;;11.40;51.40;;;;;;5012033;28;20461;-45
2021/05/02 01:57:16;;;;;;;11.00;9.87;;;11.40;51.40;;;;;;5010227;28;20879;-45
2021/05/02 01:59:45;;;;;;;11.87;9.30;;;11.40;51.30;;;;;;5010611;28;20475;-45
2021/05/02 02:02:12;;;;;;;10.47;9.33;;;11.40;51.40;;;;;;5016495;28;20463;-46
2021/05/02 02:04:43;;;;;;;10.53;9.53;;;11.40;52.20;;;;;;5017742;28;20519;-45
2021/05/02 02:07:12;;;;;;;10.10;8.93;;;11.40;52.20;;;;;;5011771;28;21137;-45
2021/05/02 02:09:41;;;;;;;12.40;11.10;;;11.40;52.00;;;;;;5014308;28;20959;-45
2021/05/02 02:12:08;;;;;;;9.80;8.80;;;11.40;52.10;;;;;;5012150;28;20543;-45
2021/05/02 02:14:39;;;;;;;10.67;9.23;;;11.40;52.10;;;;;;5004798;28;20463;-45
2021/05/02 02:17:08;;;;;;;11.40;10.20;;;11.30;52.10;;;;;;5014708;28;20563;-45
2021/05/02 02:19:36;;;;;;;13.90;9.63;;;11.30;52.30;;;;;;5026010;28;21017;-45
2021/05/02 02:22:05;;;;;;;9.97;9.00;;;11.30;52.40;;;;;;5017516;28;20467;-45
2021/05/02 02:24:52;;;;;;;10.40;9.20;;;11.30;52.70;;;;;;5008848;28;20491;-47
2021/05/02 02:27:21;;;;;;;13.43;9.60;;;11.30;53.10;;;;;;5011967;28;20953;-46
2021/05/02 02:29:48;;;;;;;11.30;10.20;;;11.20;52.70;;;;;;5003635;28;20453;-45
2021/05/02 02:32:17;;;;;;;10.43;9.50;;;11.20;53.00;;;;;;5005486;28;20453;-45
2021/05/02 02:34:45;;;;;;;10.13;8.97;;;11.20;53.30;;;;;;5013563;28;20961;-45
2021/05/02 02:37:16;;;;;;;10.93;9.80;;;11.10;53.70;;;;;;5006316;28;20493;-45
2021/05/02 02:39:59;;;;;;;11.20;9.20;;;11.10;53.90;;;;;;5013670;28;20860;-46
2021/05/02 02:42:26;;;;;;;12.90;9.20;;;11.10;53.80;;;;;;5023408;28;20463;-46
2021/05/02 02:44:57;;;;;;;11.30;10.13;;;11.10;54.00;;;;;;5004474;28;20523;-46
2021/05/02 02:47:38;;;;;;;12.77;9.70;;;11.10;54.20;;;;;;5027157;28;20458;-46
2021/05/02 02:50:11;;;;;;;11.33;9.77;;;11.10;54.10;;;;;;5011444;28;21464;-45
2021/05/02 02:52:46;;;;;;;11.80;10.60;;;11.10;54.30;;;;;;5010363;28;20483;-45
2021/05/02 02:55:15;;;;;;;12.97;10.97;;;11.10;54.60;;;;;;5013108;28;20455;-46
2021/05/02 02:57:58;;;;;;;14.83;11.73;;;11.10;54.40;;;;;;5009793;28;20549;-46
2021/05/02 03:00:28;;;;;;;11.57;10.37;;;11.00;55.00;;;;;;5007907;28;20460;-46
2021/05/02 03:03:07;;;;;;;12.40;11.20;;;11.00;55.20;;;;;;5017039;28;20494;-45
2021/05/02 03:05:36;;;;;;;13.50;10.77;;;11.00;55.30;;;;;;5011009;28;20475;-45
2021/05/02 03:08:04;;;;;;;12.57;11.30;;;11.00;55.60;;;;;;5011875;28;20467;-45
2021/05/02 03:10:31;;;;;;;15.03;11.47;;;11.00;55.60;;;;;;5009782;28;20500;-45
2021/05/02 03:12:59;;;;;;;13.20;10.70;;;11.00;55.70;;;;;;5008730;28;20460;-45
2021/05/02 03:15:28;;;;;;;14.00;11.47;;;10.90;55.80;;;;;;5011774;28;20487;-47
2021/05/02 03:18:06;;;;;;;13.80;10.30;;;10.90;55.80;;;;;;5012094;28;20487;-46
2021/05/02 03:20:41;;;;;;;12.00;10.80;;;10.80;55.80;;;;;;5012522;28;20456;-46
2021/05/02 03:23:18;;;;;;;11.60;10.50;;;10.80;56.10;;;;;;5010067;28;20501;-46
2021/05/02 03:25:48;;;;;;;11.93;10.73;;;10.80;56.20;;;;;;5011386;28;20836;-46
2021/05/02 03:28:22;;;;;;;11.73;10.60;;;10.90;56.40;;;;;;5009320;28;21042;-46
2021/05/02 03:30:49;;;;;;;13.90;11.37;;;10.80;56.50;;;;;;5013838;28;20470;-46
2021/05/02 03:33:16;;;;;;;15.80;12.47;;;10.80;56.60;;;;;;5013479;28;20454;-46
2021/05/02 03:35:45;;;;;;;14.07;10.10;;;10.80;56.70;;;;;;5007640;28;20468;-46
2021/05/02 03:38:23;;;;;;;14.23;11.40;;;10.70;56.90;;;;;;5006569;28;20452;-46
2021/05/02 03:40:50;;;;;;;12.43;10.43;;;10.70;57.00;;;;;;5011526;28;20460;-46
2021/05/02 03:43:17;;;;;;;12.40;10.83;;;10.70;57.20;;;;;;5006303;28;20494;-46
2021/05/02 03:45:43;;;;;;;12.83;10.10;;;10.70;57.40;;;;;;5011555;28;20557;-46
2021/05/02 03:48:10;;;;;;;13.80;11.17;;;10.70;57.40;;;;;;5010415;28;20479;-46
2021/05/02 03:50:36;;;;;;;14.90;11.90;;;10.70;57.30;;;;;;5008896;28;20460;-46
2021/05/02 03:53:03;;;;;;;13.43;12.03;;;10.70;57.50;;;;;;5000573;28;20461;-46
2021/05/02 03:55:46;;;;;;;14.00;12.60;;;10.70;57.60;;;;;;5016223;28;20460;-46
2021/05/02 03:58:14;;;;;;;16.50;13.07;;;10.60;57.70;;;;;;5008891;28;20458;-46
2021/05/02 04:00:42;;;;;;;15.00;13.50;;;10.60;57.80;;;;;;5005411;28;20814;-46
2021/05/02 04:03:08;;;;;;;16.70;13.30;;;10.50;58.00;;;;;;5010358;28;20522;-46
2021/05/02 04:05:35;;;;;;;15.57;12.67;;;10.50;58.20;;;;;;5006315;28;20504;-46
2021/05/02 04:08:01;;;;;;;15.80;13.87;;;10.50;58.50;;;;;;5007144;28;20465;-46
2021/05/02 04:10:27;;;;;;;18.27;15.07;;;10.40;58.60;;;;;;5012130;28;20552;-46
2021/05/02 04:12:54;;;;;;;17.00;14.47;;;10.50;58.90;;;;;;5011995;28;20459;-46
2021/05/02 04:15:20;;;;;;;17.77;14.43;;;10.50;59.10;;;;;;5012299;28;20492;-46
2021/05/02 04:17:46;;;;;;;20.07;16.00;;;10.50;59.10;;;;;;5006799;28;20465;-46
2021/05/02 04:20:13;;;;;;;15.80;13.90;;;10.40;59.50;;;;;;5009178;28;20513;-46
2021/05/02 04:22:41;;;;;;;18.60;16.20;;;10.40;59.70;;;;;;5012796;28;20459;-46
2021/05/02 04:25:07;;;;;;;18.70;16.20;;;10.40;59.70;;;;;;5008441;28;20456;-46
2021/05/02 04:27:34;;;;;;;23.53;16.67;;;10.40;59.80;;;;;;5008906;28;20461;-46
2021/05/02 04:30:00;;;;;;;19.17;16.90;;;10.40;59.90;;;;;;5005886;28;20460;-46
2021/05/02 04:32:26;;;;;;;18.57;16.53;;;10.40;60.50;;;;;;5006157;28;20496;-46
2021/05/02 04:34:53;;;;;;;21.40;16.93;;;10.40;60.50;;;;;;5014373;28;20566;-46
2021/05/02 04:37:19;;;;;;;19.17;16.03;;;10.30;60.70;;;;;;5008574;28;20463;-46
2021/05/02 04:39:46;;;;;;;18.20;15.77;;;10.20;60.90;;;;;;5006353;28;20461;-46
2021/05/02 04:42:12;;;;;;;18.33;15.53;;;10.20;61.10;;;;;;5013086;28;20972;-46
2021/05/02 04:44:38;;;;;;;20.17;16.33;;;10.10;61.40;;;;;;5008521;28;20498;-46
2021/05/02 04:47:05;;;;;;;19.60;15.93;;;10.20;61.80;;;;;;5006091;28;20456;-46
2021/05/02 04:49:32;;;;;;;19.93;16.07;;;10.20;61.60;;;;;;5003809;28;20828;-46
2021/05/02 04:51:59;;;;;;;20.80;15.83;;;10.20;61.70;;;;;;5010089;28;20455;-46
2021/05/02 04:54:25;;;;;;;24.20;18.07;;;10.20;61.90;;;;;;5008589;28;20463;-46
2021/05/02 04:56:53;;;;;;;19.53;15.93;;;10.20;62.10;;;;;;5011752;28;20460;-46
2021/05/02 04:59:20;;;;;;;20.57;16.80;;;10.20;62.10;;;;;;4999547;28;20464;-46
2021/05/02 05:01:46;;;;;;;23.63;17.70;;;10.10;62.40;;;;;;5004551;28;20993;-45
2021/05/02 05:04:14;;;;;;;20.70;15.93;;;10.10;62.60;;;;;;5009175;28;20487;-45
2021/05/02 05:06:40;;;;;;;20.50;16.93;;;10.10;62.80;;;;;;5006561;28;20465;-45
2021/05/02 05:09:06;;;;;;;26.87;18.10;;;10.10;62.80;;;;;;5006723;28;20827;-45
2021/05/02 05:11:34;;;;;;;20.37;16.90;;;10.10;63.10;;;;;;5008878;28;20460;-45
2021/05/02 05:14:00;;;;;;;22.00;17.20;;;10.00;63.30;;;;;;5007948;28;20546;-45
2021/05/02 05:16:27;;;;;;;22.53;17.13;;;10.10;63.40;;;;;;5008525;28;20489;-45
2021/05/02 05:18:54;;;;;;;22.17;17.20;;;10.00;63.50;;;;;;5007547;28;20486;-45
2021/05/02 05:21:20;;;;;;;22.77;17.93;;;10.00;63.70;;;;;;5010234;28;20873;-46
2021/05/02 05:23:46;;;;;;;21.60;17.83;;;10.00;63.80;;;;;;5011212;28;21016;-46
2021/05/02 05:26:12;;;;;;;21.77;17.10;;;10.00;64.00;;;;;;5009924;28;20455;-46
2021/05/02 05:28:39;;;;;;;21.37;17.33;;;10.00;64.10;;;;;;5008456;28;20460;-46
2021/05/02 05:31:05;;;;;;;22.63;15.83;;;10.10;64.10;;;;;;5002859;28;20464;-46
2021/05/02 05:33:31;;;;;;;22.67;17.70;;;10.10;63.60;;;;;;5006875;28;20464;-46
2021/05/02 05:35:58;;;;;;;21.70;17.10;;;10.10;63.70;;;;;;4998676;28;20463;-46
2021/05/02 05:38:25;;;;;;;21.57;17.70;;;10.10;63.60;;;;;;5006789;28;20813;-46
2021/05/02 05:40:51;;;;;;;22.17;16.37;;;10.10;63.70;;;;;;5011598;28;20491;-46
2021/05/02 05:43:20;;;;;;;20.60;16.20;;;10.10;63.40;;;;;;5008842;28;20510;-46
2021/05/02 05:45:47;;;;;;;24.43;16.43;;;10.10;63.30;;;;;;5003035;28;20456;-46
2021/05/02 05:48:13;;;;;;;20.03;15.60;;;10.10;63.30;;;;;;5007041;28;20856;-46
2021/05/02 05:50:42;;;;;;;25.13;16.70;;;10.10;63.30;;;;;;5006106;28;20460;-46
2021/05/02 05:53:08;;;;;;;21.93;17.23;;;10.10;62.90;;;;;;5002288;28;20460;-46
2021/05/02 05:55:34;;;;;;;22.53;16.37;;;10.20;63.40;;;;;;5005627;28;20461;-46
2021/05/02 05:58:03;;;;;;;22.60;16.43;;;10.20;63.00;;;;;;5003833;28;20464;-46
2021/05/02 06:00:29;;;;;;;24.13;17.80;;;10.10;62.90;;;;;;5004182;28;20564;-46
2021/05/02 06:02:55;;;;;;;25.50;17.93;;;10.10;63.10;;;;;;5008664;28;20456;-46
2021/05/02 06:05:21;;;;;;;22.70;16.73;;;10.20;62.80;;;;;;5003328;28;20860;-46
2021/05/02 06:07:48;;;;;;;18.63;16.63;;;10.20;63.10;;;;;;5003028;28;20461;-46
2021/05/02 06:10:14;;;;;;;22.37;16.53;;;10.20;62.70;;;;;;5006251;28;20445;-46
2021/05/02 06:12:41;;;;;;;20.93;14.90;;;10.20;62.30;;;;;;5008466;28;20967;-45
2021/05/02 06:15:10;;;;;;;21.87;15.87;;;10.20;61.90;;;;;;5008585;28;20476;-46
2021/05/02 06:17:37;;;;;;;21.90;16.10;;;10.30;61.90;;;;;;5008649;28;20468;-46
2021/05/02 06:20:03;;;;;;;18.20;15.00;;;10.30;61.80;;;;;;5008631;28;20456;-46
2021/05/02 06:22:30;;;;;;;20.53;15.17;;;10.40;61.90;;;;;;5007750;28;20490;-46
2021/05/02 06:24:57;;;;;;;20.10;14.70;;;10.40;61.90;;;;;;5011167;28;20499;-46
2021/05/02 06:27:23;;;;;;;14.20;12.33;;;10.50;61.70;;;;;;5010714;28;20449;-46
2021/05/02 06:29:49;;;;;;;14.83;12.23;;;10.60;60.40;;;;;;5010387;28;20459;-46
2021/05/02 06:32:15;;;;;;;20.83;12.50;;;10.70;59.30;;;;;;5008057;28;20456;-46
2021/05/02 06:34:42;;;;;;;12.87;11.00;;;10.70;59.20;;;;;;5008559;28;20465;-46
2021/05/02 06:37:08;;;;;;;17.00;12.70;;;10.80;58.60;;;;;;5011094;28;20462;-46
2021/05/02 06:39:35;;;;;;;13.03;11.13;;;10.80;58.40;;;;;;5008665;28;20526;-46
2021/05/02 06:42:01;;;;;;;13.50;11.20;;;10.90;58.00;;;;;;5009177;28;20456;-46
2021/05/02 06:44:27;;;;;;;13.47;10.10;;;10.90;57.40;;;;;;5006298;28;20997;-46
2021/05/02 06:46:54;;;;;;;14.50;11.93;;;11.00;57.90;;;;;;5008963;28;20858;-46
2021/05/02 06:49:21;;;;;;;17.10;10.77;;;11.10;57.20;;;;;;5008309;28;20542;-47
2021/05/02 06:51:47;;;;;;;15.60;10.80;;;11.10;57.10;;;;;;5009255;28;20472;-47
2021/05/02 06:54:13;;;;;;;16.07;10.83;;;11.20;57.10;;;;;;5006638;28;20456;-45
2021/05/02 06:56:40;;;;;;;15.40;11.17;;;11.20;57.40;;;;;;5004507;28;20464;-46
2021/05/02 06:59:09;;;;;;;11.07;9.87;;;11.30;56.40;;;;;;5002978;28;20471;-48
2021/05/02 07:01:35;;;;;;;14.77;11.80;;;11.40;56.00;;;;;;5000479;28;20475;-47
2021/05/02 07:04:02;;;;;;;14.10;10.93;;;11.40;56.10;;;;;;5032199;28;21047;-46
2021/05/02 07:06:33;;;;;;;14.97;11.47;;;11.50;55.50;;;;;;5006638;28;20831;-46
2021/05/02 07:09:00;;;;;;;14.80;11.30;;;11.60;55.30;;;;;;5006521;28;20543;-46
2021/05/02 07:11:26;;;;;;;16.00;12.60;;;11.70;54.80;;;;;;5000146;28;20451;-46
2021/05/02 07:13:52;;;;;;;13.40;10.77;;;11.70;54.60;;;;;;5004869;28;20465;-46
2021/05/02 07:16:20;;;;;;;12.00;10.60;;;11.70;54.80;;;;;;5003951;28;20495;-46
2021/05/02 07:18:50;;;;;;;14.40;12.10;;;11.70;54.40;;;;;;5003258;28;20471;-46
2021/05/02 07:21:18;;;;;;;11.47;10.20;;;11.80;54.40;;;;;;5008314;28;20560;-46
2021/05/02 07:23:48;;;;;;;13.47;11.50;;;11.90;54.30;;;;;;5006600;28;20488;-46
2021/05/02 07:26:15;;;;;;;12.40;10.27;;;12.10;53.70;;;;;;5005827;28;20817;-46
2021/05/02 07:28:41;;;;;;;13.60;11.10;;;12.10;53.30;;;;;;5005892;28;20465;-46
2021/05/02 07:31:07;;;;;;;11.37;9.57;;;12.30;53.30;;;;;;5006625;28;21066;-46
2021/05/02 07:33:33;;;;;;;12.20;9.27;;;12.40;52.40;;;;;;5006760;28;20461;-46
2021/05/02 07:36:00;;;;;;;13.10;10.37;;;12.60;52.20;;;;;;5006851;28;20460;-45
2021/05/02 07:38:28;;;;;;;12.63;9.80;;;12.70;51.70;;;;;;5020730;28;21079;-46
2021/05/02 07:40:58;;;;;;;13.03;10.20;;;12.80;51.30;;;;;;5006503;28;20474;-46
2021/05/02 07:43:24;;;;;;;20.73;11.90;;;12.90;51.60;;;;;;5007005;28;20993;-46
2021/05/02 07:45:51;;;;;;;13.60;11.20;;;12.80;51.00;;;;;;5009742;28;20453;-46
2021/05/02 07:48:18;;;;;;;11.10;10.00;;;12.70;51.00;;;;;;5007190;28;20472;-46
2021/05/02 07:50:44;;;;;;;14.70;10.63;;;12.60;51.20;;;;;;5007798;28;20455;-45
2021/05/02 07:53:11;;;;;;;13.40;9.57;;;12.50;51.40;;;;;;5009117;28;20456;-46
2021/05/02 07:55:37;;;;;;;12.07;9.17;;;12.50;51.40;;;;;;5003952;28;20459;-46
2021/05/02 07:58:04;;;;;;;13.80;9.70;;;12.70;51.40;;;;;;5004202;28;20467;-46
2021/05/02 08:00:30;;;;;;;11.27;8.67;;;12.90;49.80;;;;;;5002535;28;20448;-45
2021/05/02 08:02:56;;;;;;;11.13;9.70;;;13.10;50.00;;;;;;5002721;28;20464;-46
2021/05/02 08:05:22;;;;;;;13.90;9.90;;;13.30;49.50;;;;;;5004359;28;20483;-46
2021/05/02 08:07:49;;;;;;;10.50;8.43;;;13.40;49.30;;;;;;5005767;28;20546;-45
2021/05/02 08:10:15;;;;;;;14.27;8.57;;;13.50;49.10;;;;;;5004245;28;20456;-45
2021/05/02 08:12:42;;;;;;;10.47;8.10;;;13.70;47.70;;;;;;5006220;28;20456;-45
2021/05/02 08:15:09;;;;;;;9.13;7.87;;;13.80;47.70;;;;;;5002882;28;20923;-46
2021/05/02 08:17:36;;;;;;;9.40;7.47;;;13.90;47.10;;;;;;5009539;28;20469;-45
2021/05/02 08:20:07;;;;;;;11.20;8.20;;;14.00;46.30;;;;;;5005067;28;20459;-46
2021/05/02 08:22:33;;;;;;;10.13;7.70;;;14.00;46.20;;;;;;5001091;28;20472;-45
2021/05/02 08:25:00;;;;;;;12.03;8.03;;;14.00;46.70;;;;;;5006206;28;20494;-46
2021/05/02 08:27:26;;;;;;;11.60;8.57;;;14.00;47.00;;;;;;5005974;28;20462;-46
2021/05/02 08:29:53;;;;;;;8.90;7.27;;;14.20;46.60;;;;;;5003559;28;20460;-45
2021/05/02 08:32:19;;;;;;;9.63;8.67;;;14.30;46.40;;;;;;5003272;28;20456;-46
2021/05/02 08:34:46;;;;;;;9.50;8.50;;;14.40;46.90;;;;;;5003162;28;20462;-46
2021/05/02 08:37:12;;;;;;;9.40;7.30;;;14.50;46.60;;;;;;5004855;28;20798;-46
2021/05/02 08:39:38;;;;;;;11.53;7.90;;;14.60;45.80;;;;;;5001635;28;20461;-46
2021/05/02 08:42:07;;;;;;;10.80;7.80;;;14.60;45.00;;;;;;5004910;28;20460;-46
2021/05/02 08:44:35;;;;;;;8.50;7.40;;;14.70;45.90;;;;;;5008794;28;20583;-46
2021/05/02 08:47:02;;;;;;;9.37;7.00;;;14.90;45.70;;;;;;5008196;28;20541;-46
2021/05/02 08:49:28;;;;;;;10.13;7.97;;;15.20;44.90;;;;;;5007908;28;20850;-45
2021/05/02 08:51:54;;;;;;;10.60;7.53;;;15.10;43.50;;;;;;5007939;28;20823;-45
2021/05/02 08:54:23;;;;;;;8.90;6.57;;;15.10;43.90;;;;;;5011133;28;20464;-45
2021/05/02 08:56:56;;;;;;;8.40;7.50;;;14.90;43.80;;;;;;5004300;28;20456;-46
2021/05/02 08:59:22;;;;;;;7.93;6.70;;;14.80;44.60;;;;;;5005953;28;20980;-46
2021/05/02 09:01:49;;;;;;;7.13;6.43;;;15.00;44.30;;;;;;5009146;28;20506;-46
2021/05/02 09:04:16;;;;;;;8.50;6.93;;;15.40;43.60;;;;;;5009557;28;20496;-46
2021/05/02 09:06:42;;;;;;;8.43;7.03;;;15.70;43.00;;;;;;5006909;28;20468;-46
2021/05/02 09:09:11;;;;;;;8.10;6.80;;;15.80;42.90;;;;;;5005812;28;20453;-46
2021/05/02 09:11:49;;;;;;;7.77;6.13;;;15.80;43.00;;;;;;5010499;28;20457;-46
2021/05/02 09:14:19;;;;;;;9.43;6.17;;;15.50;42.90;;;;;;5009992;28;20448;-46
2021/05/02 09:16:53;;;;;;;8.97;6.87;;;15.10;43.90;;;;;;5011673;28;20476;-46
2021/05/02 09:19:33;;;;;;;7.23;6.53;;;14.80;44.60;;;;;;5011785;28;20452;-46
2021/05/02 09:22:14;;;;;;;8.37;6.00;;;14.60;45.60;;;;;;5011533;28;20467;-46
2021/05/02 09:24:40;;;;;;;4.73;4.33;;;14.90;44.90;;;;;;5011618;28;20488;-46
2021/05/02 09:27:08;;;;;;;5.40;4.90;;;15.50;42.50;;;;;;5011175;28;20495;-46
2021/05/02 09:29:37;;;;;;;6.27;5.60;;;15.70;40.90;;;;;;5007935;28;20449;-46
2021/05/02 09:32:04;;;;;;;5.57;5.07;;;15.70;41.60;;;;;;5011611;28;20888;-46
2021/05/02 09:34:31;;;;;;;5.70;4.73;;;15.90;40.70;;;;;;5011786;28;20451;-46
2021/05/02 09:37:05;;;;;;;6.27;4.60;;;16.10;40.40;;;;;;5009357;28;20547;-46
2021/05/02 09:39:56;;;;;;;7.07;5.50;;;16.10;40.10;;;;;;5011708;28;20459;-46
2021/05/02 09:42:34;;;;;;;7.67;6.80;;;15.80;41.20;;;;;;5012623;28;20441;-46
2021/05/02 09:45:07;;;;;;;9.93;5.43;;;15.50;43.10;;;;;;5012381;28;20484;-46
2021/05/02 09:47:36;;;;;;;5.93;5.30;;;15.10;43.90;;;;;;5011329;28;20456;-46
2021/05/02 09:50:18;;;;;;;7.00;5.70;;;14.90;44.40;;;;;;5010820;28;21008;-46
2021/05/02 09:53:02;;;;;;;5.93;5.43;;;14.70;45.40;;;;;;5012063;28;21013;-46
2021/05/02 09:55:37;;;;;;;4.90;4.47;;;14.50;44.90;;;;;;5012654;28;20518;-46
2021/05/02 09:58:19;;;;;;;4.47;4.03;;;14.50;45.10;;;;;;5011140;28;20539;-46
2021/05/02 10:00:56;;;;;;;5.27;4.53;;;14.50;44.80;;;;;;5012192;28;20476;-46
2021/05/02 10:03:24;;;;;;;4.83;4.23;;;14.50;44.40;;;;;;5010494;28;20526;-46
2021/05/02 10:06:02;;;;;;;5.53;4.63;;;14.40;43.80;;;;;;5009409;28;20464;-46
2021/05/02 10:08:31;;;;;;;6.70;4.93;;;14.40;44.50;;;;;;5010736;28;20510;-46
2021/05/02 10:11:04;;;;;;;4.90;4.40;;;14.50;44.40;;;;;;5010842;28;20459;-46
2021/05/02 10:13:33;;;;;;;5.50;4.67;;;14.50;44.90;;;;;;5008536;28;20910;-46
2021/05/02 10:15:59;;;;;;;8.30;4.70;;;14.50;45.20;;;;;;5010712;28;20472;-46
2021/05/02 10:18:26;;;;;;;5.50;5.00;;;14.70;44.80;;;;;;5009710;28;20505;-46
2021/05/02 10:20:53;;;;;;;7.00;3.90;;;15.00;44.60;;;;;;5011769;28;20478;-46
2021/05/02 10:23:19;;;;;;;4.77;3.93;;;15.50;44.20;;;;;;5010351;28;20456;-46
2021/05/02 10:25:48;;;;;;;6.20;4.70;;;16.20;42.20;;;;;;5011908;28;20455;-46
2021/05/02 10:28:27;;;;;;;4.17;3.70;;;16.50;41.00;;;;;;5010886;28;20558;-46
2021/05/02 10:30:58;;;;;;;3.43;2.77;;;16.60;39.60;;;;;;5010701;28;20446;-46
2021/05/02 10:33:38;;;;;;;6.60;3.20;;;16.60;38.90;;;;;;5011678;28;20453;-46
2021/05/02 10:36:06;;;;;;;4.00;3.17;;;16.50;39.60;;;;;;5010045;28;20455;-46
2021/05/02 10:38:52;;;;;;;3.57;3.27;;;16.50;39.80;;;;;;5010172;28;20452;-46
2021/05/02 10:41:31;;;;;;;3.50;3.30;;;16.60;39.70;;;;;;5010401;28;20479;-46
2021/05/02 10:44:12;;;;;;;4.00;3.60;;;16.30;39.70;;;;;;5009742;28;20490;-46
2021/05/02 10:46:44;;;;;;;7.03;3.53;;;16.00;40.20;;;;;;5008903;28;20979;-46
2021/05/02 10:49:19;;;;;;;6.80;3.50;;;15.80;41.00;;;;;;5009285;28;20468;-46
2021/05/02 10:51:48;;;;;;;4.10;3.40;;;15.60;41.80;;;;;;5025737;28;20630;-46
2021/05/02 10:54:18;;;;;;;4.90;3.30;;;15.60;41.50;;;;;;5012275;28;20468;-46
2021/05/02 10:56:50;;;;;;;4.07;3.67;;;15.40;42.10;;;;;;5009496;28;20456;-46
2021/05/02 10:59:19;;;;;;;5.80;4.00;;;15.20;43.00;;;;;;5008855;28;20464;-46
2021/05/02 11:01:46;;;;;;;6.13;3.37;;;15.00;43.20;;;;;;5009606;28;20461;-46
2021/05/02 11:04:13;;;;;;;4.10;3.67;;;15.00;43.80;;;;;;5007596;28;20555;-46
2021/05/02 11:06:39;;;;;;;6.73;3.90;;;15.20;42.70;;;;;;5016296;28;20534;-46
2021/05/02 11:09:08;;;;;;;4.53;3.77;;;15.40;43.10;;;;;;5001941;28;20468;-46
2021/05/02 11:11:41;;;;;;;3.23;2.67;;;15.60;42.50;;;;;;5001799;28;20463;-46
2021/05/02 11:16:54;;;;;;;5.37;2.97;;;15.60;39.80;;;;;;5005458;28;20479;-46
2021/05/02 11:19:24;;;;;;;4.53;3.50;;;15.50;40.00;;;;;;5002471;28;20464;-46
2021/05/02 11:21:53;;;;;;;3.77;3.20;;;15.40;40.00;;;;;;5006488;28;20456;-46
2021/05/02 11:24:24;;;;;;;4.73;3.60;;;15.30;40.10;;;;;;5009749;28;20547;-46
2021/05/02 11:29:36;;;;;;;4.13;3.17;;;15.30;40.80;;;;;;5007878;28;20444;-46
2021/05/02 11:32:03;;;;;;;5.93;3.10;;;15.30;41.80;;;;;;5007092;28;20460;-46
2021/05/02 11:34:55;;;;;;;3.07;2.77;;;15.30;42.20;;;;;;5003935;28;20471;-46
2021/05/02 11:37:53;;;;;;;2.90;2.57;;;15.50;42.30;;;;;;5002802;28;20500;-46
2021/05/02 11:42:53;;;;;;;3.80;2.80;;;15.80;40.40;;;;;;5001212;28;20999;-46
2021/05/02 11:45:22;;;;;;;5.33;3.67;;;15.80;40.30;;;;;;5007500;28;20571;-46
2021/05/02 11:47:49;;;;;;;6.43;3.00;;;15.80;40.10;;;;;;5008783;28;20527;-46
2021/05/02 11:50:17;;;;;;;5.50;3.20;;;15.90;40.80;;;;;;5007087;28;20507;-46
2021/05/02 11:52:46;;;;;;;4.97;2.97;;;16.00;40.60;;;;;;5003915;28;20466;-46
2021/05/02 11:55:30;;;;;;;4.30;2.70;;;16.20;41.20;;;;;;5008603;28;20459;-46
2021/05/02 11:58:01;;;;;;;4.13;2.87;;;16.30;39.90;;;;;;5002377;28;20469;-46
2021/05/02 12:00:38;;;;;;;3.10;2.60;;;16.40;39.50;;;;;;5000373;28;20472;-46
2021/05/02 12:03:12;;;;;;;3.53;2.70;;;16.30;39.70;;;;;;5002602;28;22678;-45
2021/05/02 12:05:49;;;;;;;12.67;4.67;;;16.20;40.50;;;;;;5002752;28;20866;-46
2021/05/02 12:08:19;;;;;;;6.67;2.50;;;16.00;39.90;;;;;;5000277;28;20460;-46
2021/05/02 12:10:45;;;;;;;3.60;2.40;;;15.80;40.00;;;;;;5001934;28;20457;-46
2021/05/02 12:13:32;;;;;;;3.23;2.50;;;15.70;40.00;;;;;;5000836;28;20475;-46
2021/05/02 12:16:08;;;;;;;4.80;3.10;;;15.60;40.10;;;;;;4996697;28;20476;-46
2021/05/02 12:18:51;;;;;;;3.97;2.67;;;15.70;40.80;;;;;;5003758;28;21121;-46
2021/05/02 12:21:32;;;;;;;3.83;2.50;;;15.80;39.90;;;;;;4999068;28;20464;-46
2021/05/02 12:24:20;;;;;;;2.70;2.50;;;15.70;40.30;;;;;;4987678;28;20484;-46
2021/05/02 12:26:48;;;;;;;2.90;2.30;;;15.60;40.70;;;;;;5002350;28;20474;-46
2021/05/02 12:29:24;;;;;;;3.17;2.87;;;15.50;41.50;;;;;;5009281;28;20452;-46
2021/05/02 12:31:56;;;;;;;5.10;2.60;;;15.40;41.20;;;;;;5007581;28;21283;-46
2021/05/02 12:34:26;;;;;;;4.20;2.80;;;15.30;40.70;;;;;;5005289;28;20468;-44
2021/05/02 12:36:53;;;;;;;2.50;2.30;;;15.30;40.60;;;;;;5004656;28;20478;-46
2021/05/02 12:39:20;;;;;;;4.67;3.30;;;15.30;41.00;;;;;;5006456;28;20458;-46
2021/05/02 12:41:55;;;;;;;3.00;2.70;;;15.30;41.80;;;;;;5007529;28;20543;-46
2021/05/02 12:44:25;;;;;;;3.30;2.80;;;15.40;41.10;;;;;;5007144;28;20496;-46
2021/05/02 12:47:19;;;;;;;3.17;2.63;;;15.50;39.80;;;;;;5008834;28;20472;-46
2021/05/02 12:49:57;;;;;;;7.80;3.03;;;15.50;39.90;;;;;;5006382;28;20473;-46
2021/05/02 12:52:36;;;;;;;2.57;2.20;;;15.50;40.10;;;;;;5007359;28;20975;-46
2021/05/02 12:55:19;;;;;;;3.77;2.50;;;15.40;40.10;;;;;;5008803;28;20466;-46
2021/05/02 12:57:59;;;;;;;3.07;2.77;;;15.20;40.60;;;;;;5008584;28;20459;-46